createdAt,value
2023-04-05T00:00:13.472Z,22.30
2023-04-05T00:02:41.935Z,22.30
2023-04-05T00:05:11.932Z,22.30
2023-04-05T00:07:41.057Z,22.30
2023-04-05T00:10:09.471Z,22.30
2023-04-05T00:12:37.199Z,22.30
2023-04-05T00:15:05.759Z,22.30
2023-04-05T00:17:33.547Z,22.30
2023-04-05T00:20:02.146Z,22.30
2023-04-05T00:22:31.826Z,22.30
2023-04-05T00:25:00.853Z,22.30
2023-04-05T00:27:28.674Z,22.30
2023-04-05T00:29:56.816Z,22.20
2023-04-05T00:32:24.666Z,22.20
2023-04-05T00:34:52.426Z,22.30
2023-04-05T00:37:20.143Z,22.20
2023-04-05T00:39:48.228Z,22.20
2023-04-05T00:42:17.263Z,22.20
2023-04-05T00:44:44.934Z,22.20
2023-04-05T00:47:12.635Z,22.20
2023-04-05T00:49:40.399Z,22.20
2023-04-05T00:52:08.114Z,22.20
2023-04-05T00:54:36.914Z,22.20
2023-04-05T00:57:06.005Z,22.20
2023-04-05T00:59:35.614Z,22.20
2023-04-05T01:02:13.406Z,22.20
2023-04-05T01:04:50.021Z,22.20
2023-04-05T01:07:25.305Z,22.20
2023-04-05T01:09:57.804Z,22.20
2023-04-05T01:12:29.242Z,22.20
2023-04-05T01:14:58.383Z,22.20
2023-04-05T01:17:28.550Z,22.20
2023-04-05T01:20:00.272Z,22.20
2023-04-05T01:23:06.236Z,22.20
2023-04-05T01:26:09.678Z,22.20
2023-04-05T01:28:50.663Z,22.20
2023-04-05T01:31:26.447Z,22.20
2023-04-05T01:34:00.183Z,22.20
2023-04-05T01:36:32.643Z,22.20
2023-04-05T01:39:05.324Z,22.20
2023-04-05T01:41:33.515Z,22.20
2023-04-05T01:44:01.214Z,22.20
2023-04-05T01:46:30.924Z,22.20
2023-04-05T01:48:58.831Z,22.20
2023-04-05T01:51:26.835Z,22.20
2023-04-05T01:53:54.549Z,22.20
2023-04-05T01:56:22.355Z,22.20
2023-04-05T01:58:50.043Z,22.20
2023-04-05T02:01:17.902Z,22.20
2023-04-05T02:03:47.054Z,22.20
2023-04-05T02:06:14.855Z,22.20
2023-04-05T02:08:42.622Z,22.20
2023-04-05T02:11:11.103Z,22.20
2023-04-05T02:13:38.826Z,22.20
2023-04-05T02:16:06.834Z,22.20
2023-04-05T02:18:35.033Z,22.20
2023-04-05T02:21:05.765Z,22.20
2023-04-05T02:23:34.454Z,22.20
2023-04-05T02:26:02.454Z,22.20
2023-04-05T02:28:31.449Z,22.20
2023-04-05T02:30:59.150Z,22.20
2023-04-05T02:33:27.589Z,22.20
2023-04-05T02:35:56.307Z,22.20
2023-04-05T02:38:25.638Z,22.20
2023-04-05T02:40:55.215Z,22.20
2023-04-05T02:43:22.952Z,22.20
2023-04-05T02:45:50.868Z,22.20
2023-04-05T02:48:19.990Z,22.20
2023-04-05T02:50:49.697Z,22.20
2023-04-05T02:53:17.532Z,22.20
2023-04-05T02:55:54.809Z,22.20
2023-04-05T02:58:23.359Z,22.20
2023-04-05T03:00:52.829Z,22.20
2023-04-05T03:03:26.552Z,22.20
2023-04-05T03:06:01.434Z,22.20
2023-04-05T03:08:36.710Z,22.20
2023-04-05T03:11:07.642Z,22.20
2023-04-05T03:13:36.043Z,22.20
2023-04-05T03:16:07.657Z,22.20
2023-04-05T03:18:36.738Z,22.20
2023-04-05T03:21:11.934Z,22.20
2023-04-05T03:23:51.259Z,22.20
2023-04-05T03:26:26.611Z,22.20
2023-04-05T03:28:54.881Z,22.20
2023-04-05T03:31:30.544Z,22.20
2023-04-05T03:34:01.808Z,22.20
2023-04-05T03:36:42.770Z,22.20
2023-04-05T03:39:22.230Z,22.20
2023-04-05T03:41:51.272Z,22.20
2023-04-05T03:44:18.946Z,22.20
2023-04-05T03:46:46.692Z,22.20
2023-04-05T03:49:16.442Z,22.20
2023-04-05T03:51:44.147Z,22.10
2023-04-05T03:54:11.836Z,22.20
2023-04-05T03:56:40.172Z,22.20
2023-04-05T03:59:16.751Z,22.20
2023-04-05T04:01:44.757Z,22.20
2023-04-05T04:04:13.546Z,22.10
2023-04-05T04:06:45.538Z,22.10
2023-04-05T04:09:14.862Z,22.10
2023-04-05T04:11:42.566Z,22.10
2023-04-05T04:14:11.200Z,22.10
2023-04-05T04:16:49.876Z,22.10
2023-04-05T04:19:29.502Z,22.20
2023-04-05T04:22:09.978Z,22.10
2023-04-05T04:24:49.993Z,22.10
2023-04-05T04:27:36.973Z,22.10
2023-04-05T04:30:14.679Z,22.10
2023-04-05T04:32:56.252Z,22.10
2023-04-05T04:35:31.207Z,22.10
2023-04-05T04:38:25.977Z,22.10
2023-04-05T04:41:26.811Z,22.10
2023-04-05T04:44:03.701Z,22.10
2023-04-05T04:46:44.327Z,22.10
2023-04-05T04:49:39.420Z,22.10
2023-04-05T04:52:07.261Z,22.10
2023-04-05T04:54:37.867Z,22.10
2023-04-05T04:57:05.653Z,22.10
2023-04-05T04:59:33.461Z,22.10
2023-04-05T05:02:05.392Z,22.10
2023-04-05T05:04:35.235Z,22.10
2023-04-05T05:07:04.390Z,22.10
2023-04-05T05:09:34.036Z,22.10
2023-04-05T05:12:01.794Z,22.10
2023-04-05T05:14:29.551Z,22.10
2023-04-05T05:16:58.932Z,22.10
2023-04-05T05:19:29.856Z,22.10
2023-04-05T05:21:58.039Z,22.10
2023-04-05T05:24:27.581Z,22.10
2023-04-05T05:26:55.256Z,22.10
2023-04-05T05:29:22.931Z,22.10
2023-04-05T05:31:51.291Z,22.10
2023-04-05T05:34:19.286Z,22.10
2023-04-05T05:36:54.550Z,22.10
2023-04-05T05:39:23.436Z,22.10
2023-04-05T05:41:52.465Z,22.10
2023-04-05T05:44:20.137Z,22.20
2023-04-05T05:46:47.874Z,22.20
2023-04-05T05:49:16.194Z,22.20
2023-04-05T05:51:43.979Z,22.20
2023-04-05T05:54:11.682Z,22.20
2023-04-05T05:56:39.401Z,22.20
2023-04-05T05:59:08.506Z,22.20
2023-04-05T06:01:38.157Z,22.20
2023-04-05T06:04:06.715Z,22.20
2023-04-05T06:06:37.263Z,22.20
2023-04-05T06:09:05.637Z,22.20
2023-04-05T06:11:34.220Z,22.20
2023-04-05T06:14:01.986Z,22.20
2023-04-05T06:16:31.508Z,22.20
2023-04-05T06:18:59.373Z,22.20
2023-04-05T06:21:27.260Z,22.20
2023-04-05T06:23:55.180Z,22.10
2023-04-05T06:26:27.034Z,22.20
2023-04-05T06:28:55.277Z,22.10
2023-04-05T06:31:28.191Z,22.10
2023-04-05T06:33:57.202Z,22.10
2023-04-05T06:36:27.298Z,22.10
2023-04-05T06:38:55.683Z,22.10
2023-04-05T06:41:23.363Z,22.10
2023-04-05T06:43:51.066Z,22.10
2023-04-05T06:46:18.923Z,22.10
2023-04-05T06:48:48.222Z,22.10
2023-04-05T06:51:17.897Z,22.10
2023-04-05T06:53:45.717Z,22.10
2023-04-05T06:56:13.486Z,22.10
2023-04-05T06:58:41.250Z,22.10
2023-04-05T07:01:09.096Z,22.10
2023-04-05T07:03:36.868Z,22.10
2023-04-05T07:06:04.784Z,22.10
2023-04-05T07:08:34.417Z,22.10
2023-04-05T07:11:02.138Z,22.10
2023-04-05T07:13:29.871Z,22.10
2023-04-05T07:16:02.058Z,22.10
2023-04-05T07:18:30.629Z,22.10
2023-04-05T07:21:01.718Z,22.20
2023-04-05T07:23:29.629Z,22.10
2023-04-05T07:26:04.272Z,22.10
2023-04-05T07:28:33.497Z,22.10
2023-04-05T07:31:01.363Z,22.10
2023-04-05T07:33:29.226Z,22.10
2023-04-05T07:35:57.877Z,22.10
2023-04-05T07:38:25.680Z,22.10
2023-04-05T07:40:53.884Z,22.10
2023-04-05T07:43:25.387Z,22.10
2023-04-05T07:45:53.861Z,22.10
2023-04-05T07:48:21.629Z,22.10
2023-04-05T07:50:52.848Z,22.10
2023-04-05T07:53:21.088Z,22.10
2023-04-05T07:55:48.797Z,22.10
2023-04-05T07:58:16.821Z,22.10
2023-04-05T08:00:46.123Z,22.10
2023-04-05T08:03:13.892Z,22.10
2023-04-05T08:05:41.648Z,22.10
2023-04-05T08:08:11.058Z,22.10
2023-04-05T08:10:40.264Z,22.10
2023-04-05T08:13:08.237Z,22.10
2023-04-05T08:15:36.185Z,22.10
2023-04-05T08:18:05.295Z,22.10
2023-04-05T08:20:38.957Z,22.10
2023-04-05T08:23:07.742Z,22.10
2023-04-05T08:25:35.585Z,22.10
2023-04-05T08:28:03.332Z,22.10
2023-04-05T08:30:31.024Z,22.10
2023-04-05T08:32:58.970Z,22.10
2023-04-05T08:35:28.148Z,22.10
2023-04-05T08:37:55.988Z,22.10
2023-04-05T08:40:29.758Z,22.10
2023-04-05T08:43:04.033Z,22.10
2023-04-05T08:45:34.866Z,22.10
2023-04-05T08:48:02.775Z,22.10
2023-04-05T08:50:32.049Z,22.10
2023-04-05T08:52:59.886Z,22.10
2023-04-05T08:55:27.590Z,22.10
2023-04-05T08:58:02.268Z,22.10
2023-04-05T09:00:30.184Z,22.10
2023-04-05T09:03:02.546Z,22.10
2023-04-05T09:05:33.078Z,22.10
2023-04-05T09:08:02.374Z,22.10
2023-04-05T09:10:30.960Z,22.10
2023-04-05T09:12:58.759Z,22.10
2023-04-05T09:15:27.103Z,22.10
2023-04-05T09:17:56.284Z,22.10
2023-04-05T09:20:24.335Z,22.10
2023-04-05T09:22:53.404Z,22.10
2023-04-05T09:25:38.507Z,22.10
2023-04-05T09:28:06.815Z,22.10
2023-04-05T09:30:36.934Z,22.20
2023-04-05T09:33:10.148Z,22.10
2023-04-05T09:35:38.119Z,22.10
2023-04-05T09:38:07.233Z,22.10
2023-04-05T09:40:45.623Z,22.10
2023-04-05T09:43:37.810Z,22.10
2023-04-05T09:46:05.742Z,22.10
2023-04-05T09:48:47.180Z,22.20
2023-04-05T09:51:15.772Z,22.20
2023-04-05T09:54:01.067Z,22.20
2023-04-05T09:56:30.001Z,22.20
2023-04-05T09:59:02.279Z,22.20
2023-04-05T10:01:31.972Z,22.20
2023-04-05T10:04:00.724Z,22.20
2023-04-05T10:06:40.037Z,22.30
2023-04-05T10:09:14.938Z,22.30
2023-04-05T10:11:44.961Z,22.30
2023-04-05T10:14:12.688Z,22.40
2023-04-05T10:16:54.653Z,22.40
2023-04-05T10:19:27.362Z,22.40
2023-04-05T10:21:55.937Z,22.50
2023-04-05T10:24:36.536Z,22.50
2023-04-05T10:27:08.225Z,22.50
2023-04-05T10:29:43.405Z,22.60
2023-04-05T10:32:19.096Z,22.60
2023-04-05T10:34:56.664Z,22.60
2023-04-05T10:37:36.896Z,22.70
2023-04-05T10:40:10.329Z,22.70
2023-04-05T10:42:43.258Z,22.70
2023-04-05T10:45:15.278Z,22.80
2023-04-05T10:47:49.574Z,22.80
2023-04-05T10:50:23.055Z,22.80
2023-04-05T10:52:52.324Z,22.80
2023-04-05T10:55:22.209Z,22.70
2023-04-05T10:57:51.305Z,22.70
2023-04-05T11:00:20.292Z,22.70
2023-04-05T11:02:49.568Z,22.70
2023-04-05T11:05:34.378Z,22.70
2023-04-05T11:08:06.239Z,22.60
2023-04-05T11:10:37.925Z,22.60
2023-04-05T11:13:07.805Z,22.60
2023-04-05T11:15:36.481Z,22.60
2023-04-05T11:18:20.376Z,22.60
2023-04-05T11:20:51.433Z,22.60
2023-04-05T11:23:20.681Z,22.60
2023-04-05T11:25:52.418Z,22.60
2023-04-05T11:28:25.543Z,22.60
2023-04-05T11:30:56.668Z,22.60
2023-04-05T11:33:38.538Z,22.60
2023-04-05T11:36:07.100Z,22.60
2023-04-05T11:38:34.892Z,22.60
2023-04-05T11:41:17.321Z,22.60
2023-04-05T11:43:47.257Z,22.60
2023-04-05T11:46:15.919Z,22.60
2023-04-05T11:48:43.918Z,22.60
2023-04-05T11:51:11.838Z,22.60
2023-04-05T11:53:39.852Z,22.60
2023-04-05T11:56:12.718Z,22.60
2023-04-05T11:58:40.887Z,22.60
2023-04-05T12:01:09.831Z,22.60
2023-04-05T12:03:38.425Z,22.60
2023-04-05T12:06:07.823Z,22.60
2023-04-05T12:08:42.805Z,22.60
2023-04-05T12:11:13.171Z,22.60
2023-04-05T12:13:41.003Z,22.60
2023-04-05T12:16:10.417Z,22.60
2023-04-05T12:18:39.131Z,22.60
2023-04-05T12:21:09.262Z,22.60
2023-04-05T12:23:38.083Z,22.60
2023-04-05T12:26:08.621Z,22.60
2023-04-05T12:28:53.874Z,22.40
2023-04-05T12:31:38.541Z,22.10
2023-04-05T12:34:06.630Z,22.10
2023-04-05T12:36:34.909Z,22.00
2023-04-05T12:39:07.408Z,21.90
2023-04-05T12:41:35.760Z,21.90
2023-04-05T12:44:12.337Z,21.70
2023-04-05T12:46:41.414Z,21.60
2023-04-05T12:49:12.269Z,21.50
2023-04-05T12:51:43.417Z,21.50
2023-04-05T12:54:13.813Z,21.60
2023-04-05T12:56:41.559Z,21.60
2023-04-05T12:59:10.748Z,21.70
2023-04-05T13:01:39.293Z,21.80
2023-04-05T13:04:15.444Z,21.80
2023-04-05T13:06:44.605Z,21.90
2023-04-05T13:09:12.274Z,22.00
2023-04-05T13:11:39.981Z,22.10
2023-04-05T13:14:08.027Z,22.10
2023-04-05T13:16:37.266Z,22.20
2023-04-05T13:19:05.260Z,22.20
2023-04-05T13:21:33.600Z,22.20
2023-04-05T13:24:01.340Z,22.30
2023-04-05T13:26:29.040Z,22.30
2023-04-05T13:28:56.706Z,22.30
2023-04-05T13:31:24.429Z,22.40
2023-04-05T13:33:53.559Z,22.40
2023-04-05T13:36:21.295Z,22.40
2023-04-05T13:38:48.957Z,22.40
2023-04-05T13:41:16.719Z,22.40
2023-04-05T13:43:44.427Z,22.50
2023-04-05T13:46:12.157Z,22.50
2023-04-05T13:48:39.909Z,22.50
2023-04-05T13:51:09.072Z,22.50
2023-04-05T13:53:36.740Z,22.50
2023-04-05T13:56:04.693Z,22.50
2023-04-05T13:58:32.391Z,22.50
2023-04-05T14:01:00.130Z,22.50
2023-04-05T14:03:27.935Z,22.60
2023-04-05T14:05:55.853Z,22.60
2023-04-05T14:08:24.930Z,22.60
2023-04-05T14:10:52.625Z,22.60
2023-04-05T14:13:20.475Z,22.60
2023-04-05T14:15:48.225Z,22.70
2023-04-05T14:18:16.017Z,22.70
2023-04-05T14:20:43.874Z,22.70
2023-04-05T14:23:11.647Z,22.70
2023-04-05T14:25:41.179Z,22.70
2023-04-05T14:28:09.128Z,22.80
2023-04-05T14:30:36.813Z,22.80
2023-04-05T14:33:04.552Z,22.90
2023-04-05T14:35:32.325Z,22.90
2023-04-05T14:38:00.041Z,22.90
2023-04-05T14:40:27.720Z,23.00
2023-04-05T14:42:56.803Z,23.00
2023-04-05T14:45:27.010Z,23.00
2023-04-05T14:47:54.985Z,23.00
2023-04-05T14:50:22.865Z,23.10
2023-04-05T14:52:50.851Z,23.10
2023-04-05T14:55:18.600Z,23.10
2023-04-05T14:57:46.298Z,23.10
2023-04-05T15:00:16.388Z,23.10
2023-04-05T15:02:45.807Z,23.20
2023-04-05T15:05:13.893Z,23.20
2023-04-05T15:07:41.647Z,23.20
2023-04-05T15:10:09.885Z,23.20
2023-04-05T15:12:37.619Z,23.30
2023-04-05T15:15:06.428Z,23.30
2023-04-05T15:17:35.448Z,23.30
2023-04-05T15:20:03.179Z,23.30
2023-04-05T15:22:31.168Z,23.40
2023-04-05T15:24:59.756Z,23.40
2023-04-05T15:27:27.455Z,23.40
2023-04-05T15:29:55.184Z,23.40
2023-04-05T15:32:22.905Z,23.40
2023-04-05T15:34:51.996Z,23.50
2023-04-05T15:37:19.659Z,23.50
2023-04-05T15:39:47.356Z,23.50
2023-04-05T15:42:15.517Z,23.60
2023-04-05T15:44:43.893Z,23.60
2023-04-05T15:47:11.717Z,23.60
2023-04-05T15:49:39.406Z,23.60
2023-04-05T15:52:08.806Z,23.60
2023-04-05T15:54:36.583Z,23.60
2023-04-05T15:57:04.328Z,23.60
2023-04-05T15:59:32.076Z,23.60
2023-04-05T16:01:59.930Z,23.60
2023-04-05T16:04:28.910Z,23.60
2023-04-05T16:06:56.839Z,23.60
2023-04-05T16:09:26.070Z,23.50
2023-04-05T16:11:53.916Z,23.50
2023-04-05T16:14:21.675Z,23.50
2023-04-05T16:16:53.765Z,23.50
2023-04-05T16:19:22.917Z,23.50
2023-04-05T16:21:51.157Z,23.50
2023-04-05T16:24:19.752Z,23.50
2023-04-05T16:26:48.814Z,23.50
2023-04-05T16:29:16.557Z,23.50
2023-04-05T16:31:47.202Z,23.50
2023-04-05T16:34:15.447Z,23.50
2023-04-05T16:36:43.345Z,23.50
2023-04-05T16:39:11.031Z,23.40
2023-04-05T16:41:38.710Z,23.40
2023-04-05T16:44:07.739Z,23.40
2023-04-05T16:46:35.571Z,23.40
2023-04-05T16:49:03.521Z,23.40
2023-04-05T16:51:31.503Z,23.30
2023-04-05T16:53:59.277Z,23.30
2023-04-05T16:56:27.008Z,23.30
2023-04-05T16:58:55.112Z,23.30
2023-04-05T17:01:24.283Z,23.30
2023-04-05T17:03:52.108Z,23.30
2023-04-05T17:06:19.831Z,23.30
2023-04-05T17:08:47.523Z,23.30
2023-04-05T17:11:15.230Z,23.30
2023-04-05T17:13:44.863Z,23.30
2023-04-05T17:16:13.309Z,23.30
2023-04-05T17:18:42.405Z,23.30
2023-04-05T17:21:12.186Z,23.30
2023-04-05T17:23:39.893Z,23.30
2023-04-05T17:26:07.593Z,23.30
2023-04-05T17:28:35.571Z,23.30
2023-04-05T17:31:03.782Z,23.30
2023-04-05T17:33:31.554Z,23.30
2023-04-05T17:36:01.638Z,23.20
2023-04-05T17:38:29.420Z,23.20
2023-04-05T17:40:59.215Z,23.20
2023-04-05T17:43:27.264Z,23.10
2023-04-05T17:45:55.401Z,23.10
2023-04-05T17:48:23.557Z,23.10
2023-04-05T17:50:51.373Z,23.10
2023-04-05T17:53:21.096Z,23.00
2023-04-05T17:55:48.938Z,23.00
2023-04-05T17:58:16.677Z,23.00
2023-04-05T18:00:44.904Z,22.90
2023-04-05T18:03:13.387Z,22.90
2023-04-05T18:05:41.311Z,22.90
2023-04-05T18:08:09.043Z,22.90
2023-04-05T18:10:38.068Z,22.90
2023-04-05T18:13:06.337Z,22.90
2023-04-05T18:15:34.024Z,22.90
2023-04-05T18:18:02.033Z,22.90
2023-04-05T18:20:29.762Z,22.90
2023-04-05T18:22:58.794Z,22.80
2023-04-05T18:25:26.558Z,22.80
2023-04-05T18:27:56.034Z,22.80
2023-04-05T18:30:23.871Z,22.80
2023-04-05T18:32:51.888Z,22.80
2023-04-05T18:35:19.735Z,22.80
2023-04-05T18:37:47.511Z,22.80
2023-04-05T18:40:15.339Z,22.70
2023-04-05T18:42:43.584Z,22.70
2023-04-05T18:45:13.022Z,22.70
2023-04-05T18:47:40.722Z,22.70
2023-04-05T18:50:09.921Z,22.70
2023-04-05T18:52:38.087Z,22.70
2023-04-05T18:55:06.569Z,22.70
2023-04-05T18:57:34.881Z,22.70
2023-04-05T19:00:02.714Z,22.70
2023-04-05T19:02:32.785Z,22.70
2023-04-05T19:05:00.611Z,22.60
2023-04-05T19:07:28.323Z,22.70
2023-04-05T19:09:56.033Z,22.60
2023-04-05T19:12:23.718Z,22.60
2023-04-05T19:14:51.392Z,22.60
2023-04-05T19:17:19.075Z,22.60
2023-04-05T19:19:48.514Z,22.60
2023-04-05T19:22:16.226Z,22.60
2023-04-05T19:24:43.950Z,22.60
2023-04-05T19:27:11.642Z,22.60
2023-04-05T19:29:39.329Z,22.60
2023-04-05T19:32:07.472Z,22.60
2023-04-05T19:34:37.232Z,22.60
2023-04-05T19:37:06.796Z,22.60
2023-04-05T19:39:37.091Z,22.60
2023-04-05T19:42:05.849Z,22.50
2023-04-05T19:44:42.055Z,22.60
2023-04-05T19:47:10.851Z,22.60
2023-04-05T19:49:42.394Z,22.50
2023-04-05T19:52:14.196Z,22.50
2023-04-05T19:54:44.282Z,22.50
2023-04-05T19:57:17.705Z,22.50
2023-04-05T19:59:45.924Z,22.50
2023-04-05T20:02:29.706Z,22.50
2023-04-05T20:04:57.495Z,22.50
2023-04-05T20:07:26.585Z,22.50
2023-04-05T20:09:55.122Z,22.50
2023-04-05T20:12:23.273Z,22.50
2023-04-05T20:14:51.929Z,22.50
2023-04-05T20:17:21.383Z,22.50
2023-04-05T20:19:57.430Z,22.50
2023-04-05T20:22:28.842Z,22.50
2023-04-05T20:24:56.545Z,22.50
2023-04-05T20:27:24.301Z,22.50
2023-04-05T20:29:52.365Z,22.50
2023-04-05T20:32:20.256Z,22.40
2023-04-05T20:34:47.976Z,22.40
2023-04-05T20:37:15.853Z,22.40
2023-04-05T20:39:44.851Z,22.40
2023-04-05T20:42:12.637Z,22.40
2023-04-05T20:44:40.995Z,22.40
2023-04-05T20:47:08.715Z,22.40
2023-04-05T20:49:36.451Z,22.40
2023-04-05T20:52:07.488Z,22.40
2023-04-05T20:54:35.313Z,22.40
2023-04-05T20:57:04.577Z,22.40
2023-04-05T20:59:32.308Z,22.40
2023-04-05T21:02:00.558Z,22.40
2023-04-05T21:04:30.025Z,22.40
2023-04-05T21:06:58.088Z,22.40
2023-04-05T21:09:25.879Z,22.40
2023-04-05T21:11:53.597Z,22.30
2023-04-05T21:14:22.606Z,22.40
2023-04-05T21:16:50.516Z,22.30
2023-04-05T21:19:18.259Z,22.30
2023-04-05T21:21:45.946Z,22.30
2023-04-05T21:24:13.620Z,22.30
2023-04-05T21:26:41.524Z,22.30
2023-04-05T21:29:09.505Z,22.30
2023-04-05T21:31:38.773Z,22.30
2023-04-05T21:34:06.472Z,22.30
2023-04-05T21:36:34.223Z,22.30
2023-04-05T21:39:01.888Z,22.30
2023-04-05T21:41:29.568Z,22.30
2023-04-05T21:43:57.439Z,22.30
2023-04-05T21:46:25.176Z,22.30
2023-04-05T21:48:54.217Z,22.30
2023-04-05T21:51:22.360Z,22.30
2023-04-05T21:53:50.033Z,22.30
2023-04-05T21:56:18.925Z,22.30
2023-04-05T21:58:46.590Z,22.30
2023-04-05T22:01:14.595Z,22.30
2023-04-05T22:03:42.347Z,22.30
2023-04-05T22:06:11.366Z,22.30
2023-04-05T22:08:39.057Z,22.30
2023-04-05T22:11:07.144Z,22.30
2023-04-05T22:13:34.820Z,22.30
2023-04-05T22:16:02.633Z,22.30
2023-04-05T22:18:30.365Z,22.20
2023-04-05T22:20:58.081Z,22.20
2023-04-05T22:23:27.132Z,22.20
2023-04-05T22:25:54.913Z,22.20
2023-04-05T22:28:22.883Z,22.20
2023-04-05T22:30:50.750Z,22.20
2023-04-05T22:33:18.441Z,22.20
2023-04-05T22:35:46.206Z,22.20
2023-04-05T22:38:13.924Z,22.20
2023-04-05T22:40:44.723Z,22.20
2023-04-05T22:43:12.553Z,22.20
2023-04-05T22:45:40.346Z,22.20
2023-04-05T22:48:08.205Z,22.20
2023-04-05T22:50:36.016Z,22.20
2023-04-05T22:53:03.755Z,22.20
2023-04-05T22:55:31.465Z,22.20
2023-04-05T22:58:00.542Z,22.20
2023-04-05T23:00:28.224Z,22.20
2023-04-05T23:02:56.184Z,22.20
2023-04-05T23:05:24.677Z,22.20
2023-04-05T23:07:52.456Z,22.20
2023-04-05T23:10:20.745Z,22.20
2023-04-05T23:12:49.353Z,22.20
2023-04-05T23:15:18.573Z,22.20
2023-04-05T23:17:46.499Z,22.20
2023-04-05T23:20:14.249Z,22.20
2023-04-05T23:22:41.975Z,22.20
2023-04-05T23:25:10.369Z,22.20
2023-04-05T23:27:38.111Z,22.20
2023-04-05T23:30:07.185Z,22.20
2023-04-05T23:32:36.279Z,22.20
2023-04-05T23:35:04.031Z,22.20
2023-04-05T23:37:31.986Z,22.20
2023-04-05T23:39:59.716Z,22.20
2023-04-05T23:42:27.464Z,22.20
2023-04-05T23:44:55.174Z,22.20
2023-04-05T23:47:22.890Z,22.20
2023-04-05T23:49:51.878Z,22.20
2023-04-05T23:52:19.602Z,22.20
2023-04-05T23:54:47.291Z,22.10
2023-04-05T23:57:14.980Z,22.10
2023-04-05T23:59:42.676Z,22.10
